createdAt,value
2023-03-01T00:00:08.195Z,-5.20
2023-03-01T00:05:15.930Z,-5.35
2023-03-01T00:10:21.562Z,-5.32
2023-03-01T00:15:25.733Z,-5.43
2023-03-01T00:20:29.691Z,-5.17
2023-03-01T00:25:35.346Z,-5.12
2023-03-01T00:30:39.289Z,-5.09
2023-03-01T00:35:43.429Z,-5.46
2023-03-01T00:40:48.913Z,-5.52
2023-03-01T00:45:52.823Z,-5.43
2023-03-01T00:50:57.046Z,-5.72
2023-03-01T00:56:03.231Z,-5.47
2023-03-01T01:01:18.368Z,-5.51
2023-03-01T01:06:25.123Z,-5.14
2023-03-01T01:11:31.635Z,-5.43
2023-03-01T01:16:36.121Z,-5.69
2023-03-01T01:21:40.239Z,-5.53
2023-03-01T01:26:45.936Z,-5.79
2023-03-01T01:31:50.416Z,-5.78
2023-03-01T01:36:55.801Z,-5.64
2023-03-01T01:42:01.997Z,-5.46
2023-03-01T01:47:08.191Z,-5.28
2023-03-01T01:52:16.191Z,-5.48
2023-03-01T01:57:24.019Z,-5.61
2023-03-01T02:02:28.416Z,-5.81
2023-03-01T02:07:32.970Z,-5.68
2023-03-01T02:12:40.602Z,-5.60
2023-03-01T02:17:44.785Z,-5.74
2023-03-01T02:22:49.402Z,-5.78
2023-03-01T02:28:00.784Z,-5.49
2023-03-01T02:33:06.604Z,-5.30
2023-03-01T02:38:11.223Z,-5.21
2023-03-01T02:43:15.560Z,-5.40
2023-03-01T02:48:21.737Z,-5.42
2023-03-01T02:53:30.913Z,-5.63
2023-03-01T02:58:41.566Z,-5.35
2023-03-01T03:03:47.182Z,-5.28
2023-03-01T03:08:52.018Z,-5.32
2023-03-01T03:13:57.142Z,-5.58
2023-03-01T03:19:06.224Z,-5.81
2023-03-01T03:24:10.570Z,-5.40
2023-03-01T03:29:15.211Z,-5.25
2023-03-01T03:34:20.699Z,-5.65
2023-03-01T03:39:24.996Z,-5.97
2023-03-01T03:44:29.272Z,-6.03
2023-03-01T03:49:35.665Z,-5.93
2023-03-01T03:54:39.778Z,-6.04
2023-03-01T03:59:43.721Z,-6.43
2023-03-01T04:04:50.756Z,-6.50
2023-03-01T04:09:55.023Z,-6.17
2023-03-01T04:14:59.135Z,-6.22
2023-03-01T04:20:08.255Z,-6.12
2023-03-01T04:25:15.043Z,-6.03
2023-03-01T04:30:19.174Z,-6.07
2023-03-01T04:35:24.625Z,-6.61
2023-03-01T04:40:28.945Z,-6.67
2023-03-01T04:45:35.753Z,-6.67
2023-03-01T04:50:41.379Z,-6.67
2023-03-01T04:55:45.661Z,-6.80
2023-03-01T05:00:49.949Z,-6.34
2023-03-01T05:05:55.571Z,-6.22
2023-03-01T05:11:00.034Z,-6.59
2023-03-01T05:16:05.364Z,-6.59
2023-03-01T05:21:13.072Z,-6.63
2023-03-01T05:26:33.927Z,-6.67
2023-03-01T05:31:39.136Z,-6.69
2023-03-01T05:36:44.581Z,-6.51
2023-03-01T05:41:48.459Z,-6.19
2023-03-01T05:46:53.229Z,-6.28
2023-03-01T05:51:58.952Z,-6.39
2023-03-01T05:57:02.827Z,-6.29
2023-03-01T06:02:07.118Z,-6.03
2023-03-01T06:07:12.364Z,-5.76
2023-03-01T06:12:16.620Z,-5.73
2023-03-01T06:17:20.694Z,-5.55
2023-03-01T06:22:26.434Z,-5.44
2023-03-01T06:27:30.366Z,-5.18
2023-03-01T06:32:34.670Z,-5.27
2023-03-01T06:37:40.724Z,-4.97
2023-03-01T06:42:46.255Z,-4.79
2023-03-01T06:47:50.978Z,-4.57
2023-03-01T06:52:59.121Z,-4.48
2023-03-01T06:58:03.877Z,-4.18
2023-03-01T07:03:08.160Z,-3.87
2023-03-01T07:08:14.113Z,-3.66
2023-03-01T07:13:18.875Z,-3.47
2023-03-01T07:18:23.299Z,-3.32
2023-03-01T07:23:28.770Z,-3.07
2023-03-01T07:28:37.073Z,-2.79
2023-03-01T07:33:41.254Z,-2.48
2023-03-01T07:38:46.953Z,-2.29
2023-03-01T07:43:51.222Z,-2.16
2023-03-01T07:48:55.160Z,-2.09
2023-03-01T07:54:00.924Z,-1.87
2023-03-01T07:59:05.171Z,-1.68
2023-03-01T08:04:09.726Z,-1.55
2023-03-01T08:09:15.393Z,-1.40
2023-03-01T08:14:19.733Z,-1.30
2023-03-01T08:19:25.227Z,-1.21
2023-03-01T08:24:31.181Z,-1.05
2023-03-01T08:29:35.815Z,-0.87
2023-03-01T08:34:40.489Z,-0.78
2023-03-01T08:39:47.139Z,-0.61
2023-03-01T08:44:51.361Z,-0.45
2023-03-01T08:49:55.425Z,-0.35
2023-03-01T08:55:02.633Z,-0.16
2023-03-01T09:00:10.134Z,-0.01
2023-03-01T09:05:14.252Z,0.07
2023-03-01T09:10:20.131Z,0.21
2023-03-01T09:15:24.296Z,0.45
2023-03-01T09:20:28.369Z,0.58
2023-03-01T09:25:33.943Z,0.62
2023-03-01T09:30:38.079Z,0.68
2023-03-01T09:35:47.182Z,0.82
2023-03-01T09:40:52.747Z,0.97
2023-03-01T09:45:59.389Z,1.15
2023-03-01T09:51:09.510Z,1.36
2023-03-01T09:56:21.984Z,1.48
2023-03-01T10:01:37.450Z,1.61
2023-03-01T10:06:46.720Z,1.67
2023-03-01T10:11:54.979Z,1.89
2023-03-01T10:17:03.715Z,1.96
2023-03-01T10:22:15.177Z,2.05
2023-03-01T10:27:24.409Z,2.21
2023-03-01T10:32:28.805Z,2.29
2023-03-01T10:37:32.725Z,2.37
2023-03-01T10:42:40.734Z,2.55
2023-03-01T10:47:45.050Z,2.71
2023-03-01T10:52:59.529Z,2.71
2023-03-01T10:58:20.136Z,2.83
2023-03-01T11:03:26.181Z,2.96
2023-03-01T11:08:43.964Z,3.29
2023-03-01T11:14:00.743Z,3.32
2023-03-01T11:19:20.685Z,3.27
2023-03-01T11:24:28.560Z,3.33
2023-03-01T11:29:47.748Z,3.58
2023-03-01T11:34:56.753Z,3.74
2023-03-01T11:40:06.866Z,3.83
2023-03-01T11:45:14.258Z,3.93
2023-03-01T11:50:28.434Z,4.13
2023-03-01T11:55:42.882Z,4.35
2023-03-01T12:01:10.553Z,4.70
2023-03-01T12:06:49.149Z,4.92
2023-03-01T12:12:11.832Z,5.16
2023-03-01T12:17:28.060Z,5.35
2023-03-01T12:22:33.828Z,5.40
2023-03-01T12:27:59.081Z,5.49
2023-03-01T12:33:13.616Z,5.71
2023-03-01T12:38:35.292Z,5.62
2023-03-01T12:43:50.178Z,5.55
2023-03-01T12:49:04.622Z,5.43
2023-03-01T12:54:16.709Z,5.53
2023-03-01T12:59:25.077Z,5.70
2023-03-01T13:04:41.532Z,5.63
2023-03-01T13:09:52.980Z,5.71
2023-03-01T13:14:56.898Z,5.79
2023-03-01T13:20:02.500Z,5.83
2023-03-01T13:25:16.917Z,5.65
2023-03-01T13:30:43.811Z,5.83
2023-03-01T13:35:49.491Z,5.78
2023-03-01T13:41:01.045Z,5.76
2023-03-01T13:46:12.171Z,5.79
2023-03-01T13:51:17.671Z,5.69
2023-03-01T13:56:23.735Z,5.94
2023-03-01T14:01:30.933Z,5.93
2023-03-01T14:06:37.303Z,6.03
2023-03-01T14:12:06.510Z,6.43
2023-03-01T14:17:45.636Z,6.71
2023-03-01T14:22:54.803Z,6.55
2023-03-01T14:28:05.477Z,6.45
2023-03-01T14:33:21.951Z,5.91
2023-03-01T14:38:32.855Z,5.79
2023-03-01T14:43:38.393Z,5.64
2023-03-01T14:48:42.647Z,5.37
2023-03-01T14:53:51.210Z,5.09
2023-03-01T14:58:59.965Z,4.79
2023-03-01T15:04:04.452Z,4.78
2023-03-01T15:09:16.013Z,4.67
2023-03-01T15:14:47.369Z,4.48
2023-03-01T15:19:56.057Z,4.34
2023-03-01T15:25:01.868Z,4.31
2023-03-01T15:30:07.164Z,4.06
2023-03-01T15:35:41.579Z,3.89
2023-03-01T15:40:52.605Z,3.77
2023-03-01T15:45:58.906Z,3.56
2023-03-01T15:51:03.511Z,3.31
2023-03-01T15:56:09.419Z,3.20
2023-03-01T16:01:17.190Z,3.03
2023-03-01T16:06:21.304Z,2.80
2023-03-01T16:11:26.821Z,2.59
2023-03-01T16:16:33.454Z,2.35
2023-03-01T16:21:38.345Z,1.96
2023-03-01T16:26:44.272Z,1.74
2023-03-01T16:31:49.099Z,1.59
2023-03-01T16:36:53.475Z,1.28
2023-03-01T16:42:01.966Z,1.00
2023-03-01T16:47:06.063Z,0.71
2023-03-01T16:52:10.317Z,0.35
2023-03-01T16:57:16.215Z,0.15
2023-03-01T17:02:21.026Z,0.15
2023-03-01T17:07:25.194Z,0.11
2023-03-01T17:12:30.687Z,0.07
2023-03-01T17:17:35.943Z,-0.13
2023-03-01T17:22:40.296Z,-0.39
2023-03-01T17:27:45.962Z,-0.46
2023-03-01T17:32:50.870Z,-0.57
2023-03-01T17:37:54.881Z,-0.84
2023-03-01T17:43:00.500Z,-0.94
2023-03-01T17:48:04.870Z,-1.06
2023-03-01T17:53:10.023Z,-1.00
2023-03-01T17:58:16.105Z,-1.09
2023-03-01T18:03:21.989Z,-1.19
2023-03-01T18:08:26.288Z,-1.37
2023-03-01T18:13:31.753Z,-1.34
2023-03-01T18:18:35.852Z,-1.35
2023-03-01T18:23:40.068Z,-1.50
2023-03-01T18:28:47.471Z,-1.68
2023-03-01T18:33:54.742Z,-1.74
2023-03-01T18:38:58.767Z,-1.72
2023-03-01T18:44:05.745Z,-1.82
2023-03-01T18:49:10.366Z,-1.86
2023-03-01T18:54:14.412Z,-1.88
2023-03-01T18:59:19.677Z,-1.92
2023-03-01T19:04:23.542Z,-1.96
2023-03-01T19:09:29.562Z,-1.98
2023-03-01T19:14:35.071Z,-1.99
2023-03-01T19:19:40.279Z,-2.08
2023-03-01T19:24:44.251Z,-2.05
2023-03-01T19:29:49.901Z,-2.07
2023-03-01T19:34:53.834Z,-2.14
2023-03-01T19:39:57.879Z,-2.12
2023-03-01T19:45:03.352Z,-2.14
2023-03-01T19:50:08.362Z,-2.25
2023-03-01T19:55:12.461Z,-2.28
2023-03-01T20:00:18.995Z,-2.04
2023-03-01T20:05:23.044Z,-2.24
2023-03-01T20:10:29.652Z,-2.48
2023-03-01T20:15:35.199Z,-2.36
2023-03-01T20:20:39.587Z,-2.37
2023-03-01T20:25:43.770Z,-2.39
2023-03-01T20:30:49.530Z,-2.38
2023-03-01T20:35:55.126Z,-2.44
2023-03-01T20:41:00.547Z,-2.38
2023-03-01T20:46:07.243Z,-2.44
2023-03-01T20:51:12.556Z,-2.52
2023-03-01T20:56:17.880Z,-2.67
2023-03-01T21:01:40.219Z,-2.72
2023-03-01T21:06:44.363Z,-2.75
2023-03-01T21:11:50.595Z,-2.73
2023-03-01T21:16:56.009Z,-2.78
2023-03-01T21:22:00.098Z,-2.76
2023-03-01T21:27:06.801Z,-2.84
2023-03-01T21:32:13.146Z,-2.91
2023-03-01T21:37:19.602Z,-2.98
2023-03-01T21:42:23.520Z,-2.84
2023-03-01T21:47:29.017Z,-2.91
2023-03-01T21:52:33.089Z,-2.97
2023-03-01T21:57:43.604Z,-2.84
2023-03-01T22:02:49.144Z,-2.65
2023-03-01T22:07:53.063Z,-2.91
2023-03-01T22:12:57.945Z,-3.16
2023-03-01T22:18:03.413Z,-3.15
2023-03-01T22:23:08.380Z,-3.14
2023-03-01T22:28:12.485Z,-3.07
2023-03-01T22:33:18.032Z,-2.80
2023-03-01T22:38:22.095Z,-2.68
2023-03-01T22:43:26.266Z,-2.92
2023-03-01T22:48:31.669Z,-3.25
2023-03-01T22:53:35.796Z,-3.21
2023-03-01T22:58:40.089Z,-3.32
2023-03-01T23:03:45.558Z,-3.43
2023-03-01T23:08:51.003Z,-3.44
2023-03-01T23:13:55.550Z,-3.59
2023-03-01T23:19:00.828Z,-3.61
2023-03-01T23:24:05.174Z,-3.67
2023-03-01T23:29:09.974Z,-3.55
2023-03-01T23:34:15.823Z,-3.53
2023-03-01T23:39:20.290Z,-3.64
2023-03-01T23:44:24.438Z,-3.65
2023-03-01T23:49:30.454Z,-3.56
2023-03-01T23:54:34.526Z,-3.46
2023-03-01T23:59:38.634Z,-3.33
